Time;durP1;ratioP1;P1;durP2;ratioP2;P2;SDS_P1;SDS_P2;PMS_P1;PMS_P2;Temp;Humidity;BMP_temperature;BMP_pressure;BME280_temperature;BME280_humidity;BME280_pressure;Samples;Min_cycle;Max_cycle;Signal;HPM_P1;HPM_P2
2021/05/12 00:00:08;;;;;;;5.73;4.00;;;15.40;99.10;;;;;;5107964;28;20677;-51
2021/05/12 00:02:35;;;;;;;4.73;4.43;;;15.40;99.10;;;;;;5113400;28;20659;-51
2021/05/12 00:05:01;;;;;;;8.07;3.73;;;15.30;99.10;;;;;;5114032;28;21239;-50
2021/05/12 00:07:28;;;;;;;4.13;3.83;;;15.30;99.00;;;;;;5113360;28;21232;-51
2021/05/12 00:09:55;;;;;;;5.40;4.10;;;15.20;99.20;;;;;;5113942;28;20684;-51
2021/05/12 00:12:22;;;;;;;4.20;3.83;;;15.20;99.10;;;;;;5113428;28;20649;-50
2021/05/12 00:14:49;;;;;;;4.20;3.80;;;15.20;99.10;;;;;;5114182;28;20659;-50
2021/05/12 00:17:19;;;;;;;3.67;3.20;;;15.30;99.00;;;;;;5113283;28;20669;-51
2021/05/12 00:19:53;;;;;;;5.00;3.40;;;15.20;99.00;;;;;;5113802;27;20623;-52
2021/05/12 00:22:30;;;;;;;5.77;4.30;;;15.20;99.00;;;;;;5114033;28;20665;-52
2021/05/12 00:24:57;;;;;;;4.20;3.80;;;15.20;98.90;;;;;;5112996;28;21271;-52
2021/05/12 00:27:24;;;;;;;3.93;3.03;;;15.10;98.80;;;;;;5113458;28;20630;-52
2021/05/12 00:29:51;;;;;;;5.60;3.57;;;15.10;98.70;;;;;;5113495;28;20706;-52
2021/05/12 00:32:18;;;;;;;5.93;3.67;;;15.20;98.80;;;;;;5111440;28;20650;-52
2021/05/12 00:34:45;;;;;;;5.77;3.60;;;15.20;98.70;;;;;;5096727;28;21077;-52
2021/05/12 00:37:12;;;;;;;4.00;3.50;;;15.30;98.70;;;;;;5092700;28;20628;-52
2021/05/12 00:39:39;;;;;;;8.40;3.87;;;15.20;98.30;;;;;;5092601;28;20621;-52
2021/05/12 00:42:06;;;;;;;3.83;2.77;;;15.20;98.30;;;;;;5093687;28;20660;-51
2021/05/12 00:44:33;;;;;;;5.37;3.27;;;15.10;98.30;;;;;;5112768;28;20651;-52
2021/05/12 00:47:02;;;;;;;4.17;3.80;;;15.20;98.50;;;;;;5113142;28;20631;-51
2021/05/12 00:49:30;;;;;;;5.40;4.13;;;15.20;98.50;;;;;;5092592;28;20681;-51
2021/05/12 00:51:57;;;;;;;6.63;3.90;;;15.30;98.60;;;;;;5092834;28;20616;-51
2021/05/12 00:54:24;;;;;;;3.47;3.17;;;15.30;98.50;;;;;;5112259;28;20708;-52
2021/05/12 00:56:51;;;;;;;4.80;4.20;;;15.40;98.50;;;;;;5107067;28;20674;-52
2021/05/12 00:59:18;;;;;;;4.17;3.73;;;15.40;98.40;;;;;;5112431;28;20619;-52
2021/05/12 01:01:44;;;;;;;5.03;3.60;;;15.30;98.30;;;;;;5112198;28;20659;-52
2021/05/12 01:04:11;;;;;;;4.37;3.93;;;15.40;98.50;;;;;;5112588;28;20663;-52
2021/05/12 01:06:39;;;;;;;6.47;4.17;;;15.30;98.40;;;;;;5112561;28;20623;-52
2021/05/12 01:09:07;;;;;;;4.83;4.17;;;15.30;98.40;;;;;;5112100;28;20627;-52
2021/05/12 01:11:33;;;;;;;3.93;3.63;;;15.30;98.40;;;;;;5111803;28;20619;-52
2021/05/12 01:14:00;;;;;;;4.00;3.60;;;15.30;98.50;;;;;;5112387;28;20647;-52
2021/05/12 01:16:27;;;;;;;3.90;3.50;;;15.30;98.40;;;;;;5112466;28;20723;-52
2021/05/12 01:18:54;;;;;;;3.97;3.10;;;15.30;98.30;;;;;;5094864;28;20630;-52
2021/05/12 01:21:21;;;;;;;5.40;4.00;;;15.30;98.30;;;;;;5101692;28;20712;-52
2021/05/12 01:23:49;;;;;;;5.00;3.77;;;15.30;98.40;;;;;;5111884;28;21088;-52
2021/05/12 01:26:16;;;;;;;5.40;3.70;;;15.30;98.40;;;;;;5113000;28;20676;-52
2021/05/12 01:28:44;;;;;;;5.43;3.50;;;15.20;98.40;;;;;;5111531;28;20626;-52
2021/05/12 01:31:12;;;;;;;5.43;5.00;;;15.20;98.50;;;;;;5112487;28;20688;-52
2021/05/12 01:33:39;;;;;;;4.87;4.47;;;15.20;98.50;;;;;;5111998;28;20667;-51
2021/05/12 01:36:06;;;;;;;4.73;4.10;;;15.20;98.60;;;;;;5112448;28;20622;-52
2021/05/12 01:38:34;;;;;;;3.53;3.27;;;15.20;98.90;;;;;;5112260;28;20632;-53
2021/05/12 01:41:02;;;;;;;7.17;3.70;;;15.20;98.60;;;;;;5112107;28;20651;-52
2021/05/12 01:43:29;;;;;;;4.00;3.70;;;15.20;98.60;;;;;;5112025;28;20712;-52
2021/05/12 01:45:55;;;;;;;4.63;3.97;;;15.20;98.70;;;;;;5092163;28;20664;-51
2021/05/12 01:48:22;;;;;;;5.27;4.70;;;15.10;98.70;;;;;;5111744;28;21251;-52
2021/05/12 01:50:49;;;;;;;6.40;5.20;;;15.20;98.70;;;;;;5111390;28;20688;-51
2021/05/12 01:53:16;;;;;;;7.83;4.07;;;15.20;98.70;;;;;;5112183;28;20651;-51
2021/05/12 01:55:43;;;;;;;4.40;3.73;;;15.10;98.70;;;;;;5112113;28;20619;-51
2021/05/12 01:58:10;;;;;;;4.37;4.00;;;15.10;98.70;;;;;;5098333;28;20690;-51
2021/05/12 02:00:39;;;;;;;4.50;4.10;;;15.10;98.80;;;;;;5104247;28;20648;-51
2021/05/12 02:03:07;;;;;;;4.67;4.30;;;15.00;98.80;;;;;;5111522;28;20716;-51
2021/05/12 02:05:34;;;;;;;4.50;4.10;;;15.10;98.90;;;;;;5111916;28;20653;-51
2021/05/12 02:08:02;;;;;;;7.40;4.27;;;15.10;98.90;;;;;;5111580;28;20619;-51
2021/05/12 02:10:29;;;;;;;4.27;3.93;;;15.10;98.90;;;;;;5111550;28;20627;-51
2021/05/12 02:12:57;;;;;;;4.57;3.80;;;15.10;98.80;;;;;;5105026;28;20632;-52
2021/05/12 02:15:23;;;;;;;4.07;3.77;;;15.10;98.70;;;;;;5108970;28;21187;-51
2021/05/12 02:17:50;;;;;;;4.03;3.80;;;15.10;98.70;;;;;;5111407;28;20688;-51
2021/05/12 02:20:20;;;;;;;4.80;3.40;;;15.10;98.60;;;;;;5110981;28;20631;-50
2021/05/12 02:22:47;;;;;;;4.13;3.73;;;15.00;98.50;;;;;;5111256;28;20653;-50
2021/05/12 02:25:13;;;;;;;5.23;3.87;;;15.00;98.50;;;;;;5111771;28;20680;-50
2021/05/12 02:27:40;;;;;;;3.80;3.30;;;14.90;98.50;;;;;;5112472;28;20627;-50
2021/05/12 02:30:10;;;;;;;3.67;3.37;;;14.90;98.60;;;;;;5110962;28;20668;-50
2021/05/12 02:32:37;;;;;;;6.63;3.40;;;14.90;98.70;;;;;;5111307;28;20673;-50
2021/05/12 02:35:04;;;;;;;4.60;3.50;;;14.90;98.70;;;;;;5111366;28;21063;-50
2021/05/12 02:37:31;;;;;;;4.60;3.80;;;14.90;98.70;;;;;;5111209;28;21195;-50
2021/05/12 02:39:58;;;;;;;5.93;4.67;;;14.90;98.70;;;;;;5112658;28;20615;-49
2021/05/12 02:42:25;;;;;;;6.50;5.07;;;14.90;98.70;;;;;;5115500;27;20716;-49
2021/05/12 02:44:52;;;;;;;5.60;4.67;;;14.90;98.70;;;;;;5115191;28;20654;-50
2021/05/12 02:47:19;;;;;;;5.13;3.73;;;14.90;98.70;;;;;;5115413;27;20697;-50
2021/05/12 02:49:46;;;;;;;4.97;4.57;;;15.00;98.80;;;;;;5115032;28;20638;-50
2021/05/12 02:52:13;;;;;;;3.87;3.40;;;15.00;98.80;;;;;;5115539;28;20635;-50
2021/05/12 02:54:40;;;;;;;6.50;4.03;;;14.90;98.60;;;;;;5113955;28;20666;-50
2021/05/12 02:57:07;;;;;;;3.57;3.20;;;14.80;98.60;;;;;;5104818;28;21211;-51
2021/05/12 02:59:33;;;;;;;6.10;3.50;;;14.80;98.70;;;;;;5111245;28;21221;-51
2021/05/12 03:02:00;;;;;;;4.63;3.83;;;14.80;98.80;;;;;;5114914;28;20698;-51
2021/05/12 03:04:28;;;;;;;4.17;3.83;;;14.80;98.90;;;;;;5114489;27;21471;-51
2021/05/12 03:06:56;;;;;;;3.50;3.20;;;14.70;98.80;;;;;;5115129;28;20666;-50
2021/05/12 03:09:22;;;;;;;3.50;3.00;;;14.80;98.80;;;;;;5114667;28;21015;-51
2021/05/12 03:11:49;;;;;;;3.77;3.43;;;14.80;98.80;;;;;;5115162;28;20688;-50
2021/05/12 03:14:16;;;;;;;3.77;3.30;;;14.80;98.60;;;;;;5114844;28;20689;-51
2021/05/12 03:16:43;;;;;;;7.40;4.43;;;14.80;98.60;;;;;;5114567;28;20631;-51
2021/05/12 03:19:09;;;;;;;3.70;3.40;;;14.80;98.50;;;;;;5114034;28;21254;-52
2021/05/12 03:21:37;;;;;;;5.37;3.50;;;14.80;98.40;;;;;;5114344;28;20719;-51
2021/05/12 03:24:05;;;;;;;3.50;3.20;;;14.80;98.30;;;;;;5114844;27;20654;-52
2021/05/12 03:26:32;;;;;;;3.87;3.37;;;14.80;98.30;;;;;;5109664;28;20664;-51
2021/05/12 03:28:59;;;;;;;3.87;3.50;;;14.70;98.30;;;;;;5114311;28;20683;-53
2021/05/12 03:31:26;;;;;;;6.50;3.20;;;14.80;98.30;;;;;;5114636;28;20624;-53
2021/05/12 03:33:55;;;;;;;4.40;3.70;;;14.80;98.30;;;;;;5114179;27;20659;-50
2021/05/12 03:36:22;;;;;;;6.70;3.40;;;14.70;98.20;;;;;;5114172;28;20619;-52
2021/05/12 03:38:50;;;;;;;2.90;2.70;;;14.70;98.30;;;;;;5103897;28;20628;-53
2021/05/12 03:41:16;;;;;;;3.90;3.60;;;14.70;98.20;;;;;;5106445;28;20735;-52
2021/05/12 03:43:43;;;;;;;5.33;3.97;;;14.60;98.20;;;;;;5113812;28;20696;-52
2021/05/12 03:46:10;;;;;;;4.43;4.10;;;14.70;98.30;;;;;;5113713;28;20623;-51
2021/05/12 03:48:37;;;;;;;3.50;3.23;;;14.70;98.30;;;;;;5113496;28;20704;-52
2021/05/12 03:51:04;;;;;;;5.73;3.70;;;14.70;98.30;;;;;;5114098;28;20651;-53
2021/05/12 03:53:31;;;;;;;4.27;3.87;;;14.70;98.20;;;;;;5114386;27;21231;-53
2021/05/12 03:55:58;;;;;;;3.73;3.43;;;14.70;98.20;;;;;;5113803;28;20631;-53
2021/05/12 03:58:25;;;;;;;4.83;3.60;;;14.70;98.20;;;;;;5113377;28;20624;-53
2021/05/12 04:00:52;;;;;;;4.30;3.67;;;14.70;98.10;;;;;;5113276;28;20755;-52
2021/05/12 04:03:19;;;;;;;5.20;4.00;;;14.70;98.30;;;;;;5114296;28;20758;-51
2021/05/12 04:05:45;;;;;;;4.60;4.20;;;14.70;98.30;;;;;;5114054;28;20619;-51
2021/05/12 04:08:12;;;;;;;7.63;4.20;;;14.70;98.30;;;;;;5113154;28;20676;-52
2021/05/12 04:10:39;;;;;;;4.20;3.83;;;14.70;98.30;;;;;;5113635;28;21193;-52
2021/05/12 04:13:06;;;;;;;5.70;3.50;;;14.70;98.30;;;;;;5113334;28;20704;-53
2021/05/12 04:15:33;;;;;;;4.97;3.70;;;14.70;98.30;;;;;;5114162;28;20677;-52
2021/05/12 04:18:00;;;;;;;6.03;4.30;;;14.70;98.30;;;;;;5113087;28;20965;-52
2021/05/12 04:20:27;;;;;;;4.47;4.10;;;14.70;98.20;;;;;;5113846;28;20631;-53
2021/05/12 04:22:53;;;;;;;5.30;3.83;;;14.70;98.10;;;;;;5113749;28;20687;-53
2021/05/12 04:25:22;;;;;;;8.90;3.93;;;14.70;98.10;;;;;;5113404;28;20620;-52
2021/05/12 04:27:49;;;;;;;8.70;3.50;;;14.70;97.80;;;;;;5112821;28;20672;-52
2021/05/12 04:30:17;;;;;;;5.13;4.00;;;14.70;97.80;;;;;;5113421;28;20623;-52
2021/05/12 04:32:44;;;;;;;4.17;3.60;;;14.70;97.80;;;;;;5113651;28;20620;-52
2021/05/12 04:35:12;;;;;;;4.90;3.20;;;14.70;97.90;;;;;;5113199;28;20696;-53
2021/05/12 04:37:39;;;;;;;3.73;3.43;;;14.70;97.70;;;;;;5112690;28;20702;-52
2021/05/12 04:40:07;;;;;;;3.80;3.50;;;14.60;97.70;;;;;;5101002;27;20663;-52
2021/05/12 04:42:33;;;;;;;4.37;3.97;;;14.60;97.70;;;;;;5092641;28;20678;-52
2021/05/12 04:45:00;;;;;;;8.57;4.87;;;14.60;97.70;;;;;;5097163;28;20716;-53
2021/05/12 04:47:28;;;;;;;6.40;3.20;;;14.70;97.80;;;;;;5112145;28;20635;-52
2021/05/12 04:49:54;;;;;;;3.87;3.50;;;14.60;97.40;;;;;;5113080;28;20627;-53
2021/05/12 04:52:21;;;;;;;4.00;3.70;;;14.70;97.80;;;;;;5112511;28;20638;-52
2021/05/12 04:54:48;;;;;;;3.93;3.10;;;14.60;97.20;;;;;;5113285;28;21195;-52
2021/05/12 04:57:14;;;;;;;4.53;4.07;;;14.60;97.30;;;;;;5106349;28;20689;-53
2021/05/12 04:59:41;;;;;;;4.37;3.83;;;14.60;97.20;;;;;;5112725;28;20624;-52
2021/05/12 05:02:10;;;;;;;3.50;3.20;;;14.70;97.30;;;;;;5112108;28;20660;-52
2021/05/12 05:04:39;;;;;;;3.90;3.50;;;14.60;97.30;;;;;;5111878;28;20651;-51
2021/05/12 05:07:06;;;;;;;5.10;3.60;;;14.60;97.20;;;;;;5111307;28;20615;-52
2021/05/12 05:09:33;;;;;;;5.00;3.53;;;14.60;97.00;;;;;;5112024;28;20697;-52
2021/05/12 05:11:59;;;;;;;4.47;4.07;;;14.60;97.00;;;;;;5111240;28;21180;-52
2021/05/12 05:14:26;;;;;;;3.40;3.10;;;14.60;97.20;;;;;;5111803;27;20651;-52
2021/05/12 05:16:53;;;;;;;7.43;4.00;;;14.60;97.20;;;;;;5111799;28;20691;-51
2021/05/12 05:19:20;;;;;;;4.87;4.37;;;14.60;97.10;;;;;;5110788;28;20981;-51
2021/05/12 05:21:49;;;;;;;5.57;3.73;;;14.60;97.30;;;;;;5112065;28;20655;-52
2021/05/12 05:24:15;;;;;;;5.93;4.10;;;14.60;97.30;;;;;;5111995;28;20731;-51
2021/05/12 05:26:42;;;;;;;3.60;3.33;;;14.60;97.20;;;;;;5112219;28;20628;-51
2021/05/12 05:29:09;;;;;;;3.90;3.50;;;14.60;97.40;;;;;;5111657;28;21231;-50
2021/05/12 05:31:36;;;;;;;4.47;4.07;;;14.60;97.40;;;;;;5111350;28;20672;-51
2021/05/12 05:34:03;;;;;;;4.73;3.90;;;14.70;97.30;;;;;;5111304;28;21048;-51
2021/05/12 05:36:30;;;;;;;4.53;4.20;;;14.70;97.20;;;;;;5111943;28;20787;-51
2021/05/12 05:38:57;;;;;;;4.00;3.70;;;14.80;97.30;;;;;;5111224;28;20684;-52
2021/05/12 05:41:24;;;;;;;8.27;4.00;;;14.80;97.60;;;;;;5111478;28;20655;-50
2021/05/12 05:43:51;;;;;;;7.20;5.10;;;14.90;97.20;;;;;;5111114;28;20691;-52
2021/05/12 05:46:18;;;;;;;8.63;5.27;;;14.90;97.20;;;;;;5111187;28;20623;-51
2021/05/12 05:48:45;;;;;;;5.13;4.73;;;14.90;97.30;;;;;;5110781;28;21184;-51
2021/05/12 05:51:11;;;;;;;4.17;3.80;;;14.90;97.20;;;;;;5111537;28;20626;-52
2021/05/12 05:53:38;;;;;;;5.37;4.60;;;14.90;97.00;;;;;;5111433;28;20655;-50
2021/05/12 05:56:06;;;;;;;5.53;3.90;;;14.90;97.20;;;;;;5111004;28;20623;-51
2021/05/12 05:58:32;;;;;;;6.30;3.53;;;14.80;97.20;;;;;;5110262;28;20651;-51
2021/05/12 06:00:59;;;;;;;6.53;3.83;;;14.80;97.50;;;;;;5111686;28;20657;-52
2021/05/12 06:03:26;;;;;;;6.93;4.50;;;14.80;97.60;;;;;;5111267;28;21255;-52
2021/05/12 06:05:53;;;;;;;9.20;4.97;;;14.80;97.40;;;;;;5111587;28;20666;-52
2021/05/12 06:08:19;;;;;;;7.73;4.97;;;14.90;97.40;;;;;;5111134;28;20628;-51
2021/05/12 06:10:46;;;;;;;6.50;4.67;;;14.90;97.30;;;;;;5111403;28;20711;-51
2021/05/12 06:13:14;;;;;;;4.90;4.50;;;14.90;97.10;;;;;;5102326;28;20648;-52
2021/05/12 06:15:41;;;;;;;7.43;4.90;;;14.90;97.20;;;;;;5115227;28;20746;-52
2021/05/12 06:18:08;;;;;;;4.53;4.17;;;15.00;97.10;;;;;;5115315;28;20623;-52
2021/05/12 06:20:35;;;;;;;5.43;3.80;;;15.00;97.00;;;;;;5114570;28;20627;-52
2021/05/12 06:23:02;;;;;;;6.97;4.63;;;14.90;96.80;;;;;;5113072;28;20671;-52
2021/05/12 06:25:29;;;;;;;4.90;4.50;;;14.90;96.70;;;;;;5114596;28;21030;-52
2021/05/12 06:27:56;;;;;;;5.67;4.40;;;14.90;97.00;;;;;;5114470;27;20627;-52
2021/05/12 06:30:23;;;;;;;6.87;4.77;;;14.90;97.10;;;;;;5114320;28;20631;-52
2021/05/12 06:32:52;;;;;;;5.10;4.23;;;14.90;97.20;;;;;;5115564;28;20627;-53
2021/05/12 06:35:19;;;;;;;4.47;4.17;;;15.00;97.40;;;;;;5115284;28;21192;-53
2021/05/12 06:37:46;;;;;;;6.23;4.53;;;14.90;97.20;;;;;;5115098;28;20623;-52
2021/05/12 06:40:15;;;;;;;4.33;4.03;;;15.00;97.30;;;;;;5115152;28;20611;-53
2021/05/12 06:42:43;;;;;;;4.47;4.03;;;14.90;97.10;;;;;;5113635;28;21232;-52
2021/05/12 06:45:12;;;;;;;12.03;5.00;;;14.90;97.30;;;;;;5112586;27;20620;-52
2021/05/12 06:47:40;;;;;;;5.40;4.90;;;14.90;97.20;;;;;;5114072;27;20627;-52
2021/05/12 06:50:07;;;;;;;7.00;5.10;;;15.00;97.30;;;;;;5116568;27;20681;-52
2021/05/12 06:52:34;;;;;;;5.17;4.77;;;15.10;97.30;;;;;;5115311;27;20671;-52
2021/05/12 06:55:01;;;;;;;4.30;3.97;;;15.20;97.00;;;;;;5117563;27;20700;-51
2021/05/12 06:57:28;;;;;;;5.10;4.60;;;15.20;96.90;;;;;;5121867;27;20657;-51
2021/05/12 06:59:55;;;;;;;6.13;4.83;;;15.30;96.50;;;;;;5097264;28;20631;-51
2021/05/12 07:02:21;;;;;;;7.20;4.40;;;15.30;96.10;;;;;;5114468;28;20741;-51
2021/05/12 07:04:49;;;;;;;5.87;4.20;;;15.30;95.90;;;;;;5121481;27;21040;-51
2021/05/12 07:07:16;;;;;;;5.23;3.50;;;15.40;95.90;;;;;;5122485;27;20751;-51
2021/05/12 07:09:43;;;;;;;9.10;4.93;;;15.50;95.80;;;;;;5114007;27;20680;-51
2021/05/12 07:12:09;;;;;;;6.73;5.30;;;15.60;95.10;;;;;;5114516;28;20658;-51
2021/05/12 07:14:37;;;;;;;6.60;4.63;;;15.60;94.90;;;;;;5114273;27;20654;-51
2021/05/12 07:17:04;;;;;;;13.30;5.13;;;15.70;95.00;;;;;;5114005;28;20680;-50
2021/05/12 07:19:31;;;;;;;10.20;5.20;;;15.70;94.80;;;;;;5118322;27;20680;-50
2021/05/12 07:21:59;;;;;;;5.20;4.30;;;15.70;94.00;;;;;;5114238;28;20664;-51
2021/05/12 07:24:25;;;;;;;5.20;4.70;;;15.70;94.30;;;;;;5115307;27;20666;-51
2021/05/12 07:26:53;;;;;;;6.47;3.83;;;15.80;94.50;;;;;;5124714;27;20711;-50
2021/05/12 07:29:19;;;;;;;5.33;4.93;;;15.90;94.10;;;;;;5113602;28;20635;-50
2021/05/12 07:31:46;;;;;;;6.07;5.47;;;15.90;94.20;;;;;;5114762;28;20676;-51
2021/05/12 07:34:13;;;;;;;5.10;4.70;;;15.90;94.20;;;;;;5114320;28;20658;-52
2021/05/12 07:36:40;;;;;;;6.87;5.47;;;15.90;94.00;;;;;;5113349;27;20619;-52
2021/05/12 07:39:08;;;;;;;5.20;4.70;;;16.00;94.60;;;;;;5122443;27;21416;-52
2021/05/12 07:41:35;;;;;;;5.53;5.03;;;16.20;93.70;;;;;;5113300;28;20677;-51
2021/05/12 07:44:02;;;;;;;6.83;5.67;;;16.20;93.70;;;;;;5099354;27;20647;-52
2021/05/12 07:46:29;;;;;;;6.00;4.50;;;16.20;94.00;;;;;;5114792;27;20611;-52
2021/05/12 07:48:56;;;;;;;5.63;5.07;;;16.40;94.00;;;;;;5124794;27;20638;-52
2021/05/12 07:51:23;;;;;;;6.70;4.70;;;16.50;93.90;;;;;;5113100;27;20650;-51
2021/05/12 07:53:50;;;;;;;5.00;4.50;;;16.70;93.60;;;;;;5111411;28;20659;-51
2021/05/12 07:56:17;;;;;;;6.20;4.10;;;16.80;92.20;;;;;;5112677;28;20659;-51
2021/05/12 07:58:44;;;;;;;6.80;4.33;;;16.80;91.40;;;;;;5112490;28;20683;-51
2021/05/12 08:01:20;;;;;;;5.37;4.40;;;16.70;90.90;;;;;;5113994;27;20627;-51
2021/05/12 08:03:46;;;;;;;5.30;4.80;;;16.60;90.90;;;;;;5113296;28;20671;-51
2021/05/12 08:06:13;;;;;;;5.63;5.03;;;16.60;91.30;;;;;;5112834;28;20619;-51
2021/05/12 08:08:40;;;;;;;6.00;5.47;;;16.60;91.50;;;;;;5112793;28;20635;-51
2021/05/12 08:11:07;;;;;;;4.60;4.20;;;16.60;90.90;;;;;;5113080;28;20718;-51
2021/05/12 08:13:35;;;;;;;5.63;5.13;;;16.70;91.10;;;;;;5113371;28;20711;-50
2021/05/12 08:16:01;;;;;;;5.00;4.60;;;16.50;90.60;;;;;;5113154;28;20691;-51
2021/05/12 08:18:28;;;;;;;4.83;4.43;;;16.40;91.30;;;;;;5112770;28;20664;-51
2021/05/12 08:20:56;;;;;;;6.13;4.77;;;16.40;91.40;;;;;;5128150;27;20628;-51
2021/05/12 08:23:23;;;;;;;4.60;4.20;;;16.40;92.00;;;;;;5112565;28;20663;-51
2021/05/12 08:25:50;;;;;;;6.03;4.70;;;16.40;90.90;;;;;;5114133;27;20665;-52
2021/05/12 08:28:17;;;;;;;5.87;5.00;;;16.30;91.20;;;;;;5114589;27;20651;-50
2021/05/12 08:30:46;;;;;;;4.70;4.20;;;16.20;91.40;;;;;;5112203;28;20619;-50
2021/05/12 08:33:13;;;;;;;5.23;3.70;;;16.10;91.30;;;;;;5117594;27;20649;-51
2021/05/12 08:35:41;;;;;;;5.57;5.07;;;16.10;91.80;;;;;;5113311;28;21256;-51
2021/05/12 08:38:09;;;;;;;6.90;4.50;;;16.10;91.80;;;;;;5123260;27;21253;-51
2021/05/12 08:40:36;;;;;;;8.03;4.90;;;16.10;91.50;;;;;;5133764;27;20683;-51
2021/05/12 08:43:03;;;;;;;5.17;4.67;;;16.10;91.60;;;;;;5121417;27;20659;-51
2021/05/12 08:45:30;;;;;;;6.27;5.70;;;16.10;91.70;;;;;;5112847;28;20650;-52
2021/05/12 08:47:58;;;;;;;9.37;6.00;;;16.30;91.50;;;;;;5112277;28;20620;-51
2021/05/12 08:50:26;;;;;;;5.53;5.00;;;16.40;91.50;;;;;;5145628;27;20653;-51
2021/05/12 08:52:53;;;;;;;6.67;5.17;;;16.60;91.70;;;;;;5112851;28;20627;-52
2021/05/12 08:55:21;;;;;;;5.10;4.70;;;16.80;91.60;;;;;;5112213;28;20631;-52
2021/05/12 08:57:48;;;;;;;6.63;5.60;;;16.90;90.00;;;;;;5111829;28;20647;-52
2021/05/12 09:00:16;;;;;;;5.53;4.90;;;17.00;89.80;;;;;;5095349;28;20993;-51
2021/05/12 09:02:43;;;;;;;4.97;4.40;;;17.10;90.00;;;;;;5100005;28;20648;-52
2021/05/12 09:05:12;;;;;;;4.50;4.17;;;17.20;88.90;;;;;;5111635;28;20635;-52
2021/05/12 09:07:39;;;;;;;6.63;4.97;;;17.20;87.10;;;;;;5112114;28;21016;-51
2021/05/12 09:10:07;;;;;;;8.00;4.40;;;17.20;87.60;;;;;;5111865;28;20631;-50
2021/05/12 09:12:47;;;;;;;5.57;4.43;;;17.30;87.90;;;;;;5111504;28;20662;-51
2021/05/12 09:15:16;;;;;;;6.73;5.10;;;17.40;88.00;;;;;;5112241;28;20631;-50
2021/05/12 09:17:43;;;;;;;4.77;4.27;;;17.50;85.70;;;;;;5111381;28;21024;-50
2021/05/12 09:20:30;;;;;;;5.37;4.43;;;17.60;85.60;;;;;;5110525;28;21201;-51
2021/05/12 09:23:11;;;;;;;4.73;4.10;;;17.60;85.20;;;;;;5100905;28;20739;-51
2021/05/12 09:25:39;;;;;;;5.27;4.87;;;17.80;84.00;;;;;;5111509;28;20687;-50
2021/05/12 09:28:11;;;;;;;6.13;4.93;;;17.90;84.70;;;;;;5111518;28;21179;-51
2021/05/12 09:30:38;;;;;;;4.60;4.20;;;18.20;84.60;;;;;;5111678;28;20692;-51
2021/05/12 09:33:05;;;;;;;8.70;3.77;;;18.40;83.50;;;;;;5111613;28;20771;-51
2021/05/12 09:35:33;;;;;;;5.23;4.00;;;18.50;80.00;;;;;;5111339;27;20672;-52
2021/05/12 09:38:00;;;;;;;4.87;4.47;;;18.50;80.00;;;;;;5111261;28;20668;-50
2021/05/12 09:40:27;;;;;;;8.60;4.57;;;18.50;80.20;;;;;;5131513;27;20622;-51
2021/05/12 09:42:59;;;;;;;4.93;3.90;;;18.50;79.20;;;;;;5120162;27;21183;-52
2021/05/12 09:45:27;;;;;;;4.23;3.87;;;18.40;78.00;;;;;;5111526;28;21149;-52
2021/05/12 09:47:55;;;;;;;4.03;3.63;;;18.40;77.20;;;;;;5111018;28;20696;-52
2021/05/12 09:50:24;;;;;;;4.67;4.27;;;18.40;76.00;;;;;;5108691;28;20627;-53
2021/05/12 09:52:52;;;;;;;7.27;4.57;;;18.30;76.80;;;;;;5110760;28;21245;-52
2021/05/12 09:55:19;;;;;;;4.27;3.87;;;18.50;76.80;;;;;;5114111;27;20680;-52
2021/05/12 09:58:02;;;;;;;4.43;3.80;;;18.80;76.10;;;;;;5109075;28;20721;-52
2021/05/12 10:00:30;;;;;;;4.77;4.37;;;18.90;75.00;;;;;;5109464;27;20615;-51
2021/05/12 10:02:57;;;;;;;5.13;3.27;;;18.90;74.70;;;;;;5111210;28;20782;-52
2021/05/12 10:05:24;;;;;;;5.47;3.23;;;18.90;72.70;;;;;;5110334;27;20968;-51
2021/05/12 10:07:53;;;;;;;6.83;3.90;;;18.90;73.70;;;;;;5110014;28;20664;-51
2021/05/12 10:10:39;;;;;;;4.17;3.77;;;18.90;74.00;;;;;;5118073;28;20634;-52
2021/05/12 10:13:06;;;;;;;3.63;3.30;;;18.90;71.20;;;;;;5110593;28;21332;-51
2021/05/12 10:15:33;;;;;;;4.60;3.37;;;18.80;71.70;;;;;;5110314;28;21199;-52
2021/05/12 10:18:01;;;;;;;4.07;3.47;;;18.80;70.80;;;;;;5113691;28;20627;-51
2021/05/12 10:20:28;;;;;;;3.90;3.03;;;18.90;71.70;;;;;;5113360;28;20668;-52
2021/05/12 10:22:56;;;;;;;4.90;3.77;;;18.90;70.70;;;;;;5113088;28;20650;-52
2021/05/12 10:25:23;;;;;;;4.23;3.47;;;19.00;71.70;;;;;;5107837;28;20669;-53
2021/05/12 10:27:50;;;;;;;3.57;3.27;;;19.30;72.10;;;;;;5113105;28;21195;-53
2021/05/12 10:30:17;;;;;;;4.40;4.10;;;19.50;72.10;;;;;;5118087;27;20743;-53
2021/05/12 10:32:48;;;;;;;4.10;3.70;;;19.50;69.90;;;;;;5110627;28;21206;-52
2021/05/12 10:35:15;;;;;;;5.10;4.60;;;19.60;70.30;;;;;;5108037;28;20675;-51
2021/05/12 10:37:42;;;;;;;5.90;4.27;;;19.80;70.10;;;;;;5109499;28;20627;-54
2021/05/12 10:40:17;;;;;;;7.07;4.50;;;19.70;69.00;;;;;;5106036;28;20692;-54
2021/05/12 10:42:52;;;;;;;4.43;3.63;;;19.70;69.50;;;;;;5100338;28;20647;-51
2021/05/12 10:45:21;;;;;;;4.60;4.07;;;19.70;68.00;;;;;;5105667;28;20630;-52
2021/05/12 10:47:49;;;;;;;3.40;3.10;;;19.80;67.70;;;;;;5111854;28;21218;-51
2021/05/12 10:50:16;;;;;;;8.20;3.80;;;19.90;67.60;;;;;;5112379;28;20649;-51
2021/05/12 10:53:17;;;;;;;5.33;4.10;;;20.10;66.30;;;;;;5110061;28;20615;-51
2021/05/12 10:56:07;;;;;;;6.30;4.53;;;20.30;66.80;;;;;;5116037;28;21171;-52
2021/05/12 10:58:52;;;;;;;5.70;4.37;;;20.20;66.60;;;;;;5115231;28;20616;-51
2021/05/12 11:01:19;;;;;;;5.07;3.90;;;20.00;66.70;;;;;;5113548;27;20622;-50
2021/05/12 11:04:18;;;;;;;7.50;4.30;;;19.90;67.60;;;;;;5118365;27;21025;-52
2021/05/12 11:07:04;;;;;;;6.47;4.37;;;19.70;65.50;;;;;;5113521;27;20623;-52
2021/05/12 11:09:45;;;;;;;5.90;4.30;;;19.60;67.00;;;;;;5119776;27;20622;-52
2021/05/12 11:12:15;;;;;;;9.83;4.70;;;19.40;67.80;;;;;;5122388;27;20687;-52
2021/05/12 11:14:54;;;;;;;7.43;4.73;;;19.30;68.10;;;;;;5123752;27;20642;-52
2021/05/12 11:17:22;;;;;;;6.03;4.77;;;19.20;70.50;;;;;;5118722;27;20631;-52
2021/05/12 11:19:52;;;;;;;5.20;4.20;;;19.10;72.30;;;;;;5127246;27;21279;-53
2021/05/12 11:22:43;;;;;;;11.33;4.60;;;19.00;72.20;;;;;;5112701;28;20623;-52
2021/05/12 11:25:20;;;;;;;5.03;4.53;;;19.00;72.40;;;;;;5124048;27;20631;-52
2021/05/12 11:33:38;;;;;;;5.23;4.47;;;18.90;73.80;;;;;;5111373;28;20638;-52
2021/05/12 11:36:08;;;;;;;8.90;5.50;;;18.90;73.60;;;;;;5113672;28;20680;-52
2021/05/12 11:38:37;;;;;;;8.20;5.30;;;18.90;74.20;;;;;;5112117;28;20615;-51
2021/05/12 11:41:05;;;;;;;8.80;4.63;;;18.90;73.00;;;;;;5120536;27;20683;-51
2021/05/12 11:43:36;;;;;;;5.63;5.13;;;18.90;72.70;;;;;;5113504;27;20698;-52
2021/05/12 11:46:07;;;;;;;4.93;4.43;;;18.90;73.30;;;;;;5112340;27;20981;-52
2021/05/12 11:48:37;;;;;;;7.20;4.37;;;19.00;73.20;;;;;;5109482;27;20620;-53
2021/05/12 11:51:04;;;;;;;5.57;4.70;;;19.00;72.40;;;;;;5113999;27;20622;-51
2021/05/12 11:53:31;;;;;;;6.47;4.97;;;19.10;72.10;;;;;;5112710;27;20696;-51
2021/05/12 11:55:58;;;;;;;9.20;5.30;;;19.10;72.50;;;;;;5108170;28;20627;-51
2021/05/12 11:58:26;;;;;;;7.83;3.50;;;19.20;71.20;;;;;;5104287;28;20631;-53
2021/05/12 12:00:56;;;;;;;5.23;3.67;;;19.30;72.00;;;;;;5108572;28;20693;-50
2021/05/12 12:03:25;;;;;;;4.80;4.37;;;19.30;70.60;;;;;;5112622;28;20701;-51
2021/05/12 12:06:02;;;;;;;7.37;4.40;;;19.40;68.90;;;;;;5113954;28;20627;-51
2021/05/12 12:08:29;;;;;;;4.70;4.20;;;19.50;68.10;;;;;;5112731;28;21023;-53
2021/05/12 12:11:13;;;;;;;4.43;4.03;;;19.60;68.60;;;;;;5113308;28;20627;-52
2021/05/12 12:13:41;;;;;;;7.87;3.80;;;19.90;67.60;;;;;;5112330;28;20715;-51
2021/05/12 12:16:09;;;;;;;4.60;4.20;;;20.20;66.60;;;;;;5113606;28;20619;-53
2021/05/12 12:18:36;;;;;;;4.87;4.13;;;20.50;65.60;;;;;;5112782;28;20623;-54
2021/05/12 12:21:04;;;;;;;4.57;4.10;;;20.70;64.00;;;;;;5112992;28;21033;-53
2021/05/12 12:23:32;;;;;;;4.93;4.43;;;20.90;64.30;;;;;;5113252;28;20712;-53
2021/05/12 12:26:16;;;;;;;6.30;3.70;;;21.20;63.50;;;;;;5112281;28;20965;-54
2021/05/12 12:28:44;;;;;;;6.47;4.10;;;21.60;60.10;;;;;;5114510;28;20684;-53
2021/05/12 12:31:18;;;;;;;5.03;3.87;;;22.00;58.90;;;;;;5115085;28;20692;-53
2021/05/12 12:34:14;;;;;;;4.07;3.67;;;22.20;57.60;;;;;;5114483;28;20787;-51
2021/05/12 12:36:52;;;;;;;4.17;3.33;;;22.30;56.00;;;;;;5115865;28;20619;-52
2021/05/12 12:39:19;;;;;;;4.97;3.80;;;22.30;55.90;;;;;;5112842;28;20676;-52
2021/05/12 12:41:50;;;;;;;3.53;3.23;;;22.50;55.80;;;;;;5113204;28;21176;-51
2021/05/12 12:44:17;;;;;;;8.67;3.97;;;22.60;53.90;;;;;;5113071;28;20655;-52
2021/05/12 12:46:44;;;;;;;5.60;2.90;;;22.50;54.10;;;;;;5110869;28;20616;-52
2021/05/12 12:49:11;;;;;;;4.70;3.80;;;22.30;53.40;;;;;;5112437;27;20637;-52
2021/05/12 12:51:39;;;;;;;6.27;3.97;;;22.10;54.10;;;;;;5112195;28;20978;-51
2021/05/12 12:54:06;;;;;;;4.87;3.70;;;22.00;54.20;;;;;;5112381;27;20655;-51
2021/05/12 12:56:36;;;;;;;7.33;4.60;;;22.20;54.80;;;;;;5109986;28;20715;-51